Mr. Mag — WDE7813 — position and weather

sailwx.info

Track history (hours):
 
Tides and Currents Weather Stations Pressure Air Temp Water Temp Dewpoint Dewpoint Depression Visibility Wind Speed Wind Dir Waves Ship Positions

Mr. Mag

Owner: Tandi Marine, Inc., Larose, LA. More information available from US FCC via Universal Licensing System and Coast Guard Vessel Documentation Center.

Last reported at 2016-Feb-13 07:33 UTC. Time now 2016-Feb-13 11:00 UTC.
Position N 29°05' W 093°28'.

Length 46 m; draft 2.5 m.

Type: Passenger vessel. MMSI: 367397990.

Date/timePositionNaut miles runAvg speedWind from/ knotsBaromVisibWave heightAir tempDewpointWater temp
2016-Feb-13 07:33N 29°05' W 093°28'1717.4
2016-Feb-13 06:33N 29°22' W 093°24'1917.4
2016-Feb-13 05:29N 29°40' W 093°21'6 6.6
2016-Feb-13 04:34N 29°46' W 093°21'0 0.0
2016-Feb-13 03:34N 29°46' W 093°21'0 0.0
2016-Feb-13 02:33N 29°46' W 093°21'2 2.1
2016-Feb-13 01:34N 29°48' W 093°21'1 0.9
2016-Feb-13 00:34N 29°49' W 093°20'0 0.0
2016-Feb-12 23:34N 29°49' W 093°20'0 0.1
2016-Feb-12 22:34N 29°49' W 093°20'0 0.0
2016-Feb-12 21:34N 29°49' W 093°20'8 8.2
2016-Feb-12 20:33N 29°41' W 093°21'37 3.3
2016-Feb-12 09:08N 29°04' W 093°28'1617.8
2016-Feb-12 08:15N 29°20' W 093°25'1217.4
2016-Feb-12 07:33N 29°32' W 093°22'1615.7
2016-Feb-12 06:33N 29°47' W 093°21'2 1.8
2016-Feb-12 05:33N 29°49' W 093°21'0 0.0
2016-Feb-12 04:33N 29°49' W 093°21'0 0.1
2016-Feb-12 03:33N 29°49' W 093°20'0 0.0
2016-Feb-12 02:33N 29°49' W 093°20'0 0.0
2016-Feb-12 01:33N 29°49' W 093°20'1 1.2
2016-Feb-12 00:33N 29°48' W 093°21'4414.5
2016-Feb-11 21:34N 29°05' W 093°27'7 6.8
2016-Feb-11 20:30N 28°58' W 093°29'33 2.3
2016-Feb-11 06:28N 29°30' W 093°23'1516.3
2016-Feb-11 05:33N 29°45' W 093°21'4 4.2
2016-Feb-11 04:33N 29°49' W 093°20'0 0.0
2016-Feb-11 03:33N 29°49' W 093°20'1 0.7
2016-Feb-11 02:33N 29°49' W 093°21'1 0.6
2016-Feb-11 01:32N 29°49' W 093°20'0 0.0
2016-Feb-11 00:33N 29°49' W 093°20'0 0.0
2016-Feb-10 23:33N 29°49' W 093°20'0 0.0
2016-Feb-10 22:33N 29°49' W 093°20'0 0.0
2016-Feb-10 21:33N 29°49' W 093°20'0 0.0
2016-Feb-10 20:33N 29°49' W 093°20'0 0.0
2016-Feb-10 19:33N 29°49' W 093°20'0 0.0
2016-Feb-10 18:33N 29°49' W 093°20'0 0.0
2016-Feb-10 17:33N 29°49' W 093°20'0 0.0
2016-Feb-10 16:33N 29°49' W 093°20'0 0.0
2016-Feb-10 15:33N 29°49' W 093°20'0 0.0
2016-Feb-10 14:33N 29°49' W 093°20'0 0.0
2016-Feb-10 13:33N 29°49' W 093°20'0 0.0
2016-Feb-10 12:33N 29°49' W 093°20'0 0.0
2016-Feb-10 11:33N 29°49' W 093°20'0 0.0
2016-Feb-10 10:33N 29°49' W 093°20'0 0.0
2016-Feb-10 09:33N 29°49' W 093°20'0 0.0
2016-Feb-10 08:33N 29°49' W 093°20'0 0.0
2016-Feb-10 07:33N 29°49' W 093°20'0 0.0
2016-Feb-10 06:33N 29°49' W 093°20'0 0.0
2016-Feb-10 05:33N 29°49' W 093°20'0 0.0
2016-Feb-10 04:33N 29°49' W 093°20'0 0.0
2016-Feb-10 03:33N 29°49' W 093°20'0 0.0
2016-Feb-10 02:33N 29°49' W 093°20'0 0.0
2016-Feb-10 01:33N 29°49' W 093°20'0 0.0
2016-Feb-10 00:33N 29°49' W 093°20'0 0.1
2016-Feb-09 23:30N 29°49' W 093°20'1 1.0
2016-Feb-09 22:33N 29°49' W 093°21'1 0.8
2016-Feb-09 21:33N 29°49' W 093°20'0 0.0
2016-Feb-09 20:33N 29°49' W 093°20'0 0.0
2016-Feb-09 19:33N 29°49' W 093°20'0 0.0
2016-Feb-09 18:33N 29°49' W 093°20'0 0.0
2016-Feb-09 17:33N 29°49' W 093°20'0 0.0
2016-Feb-09 16:33N 29°49' W 093°20'0 0.0
2016-Feb-09 15:33N 29°49' W 093°20'0 0.0
2016-Feb-09 14:33N 29°49' W 093°20'0 0.1
2016-Feb-09 13:33N 29°49' W 093°20'0 0.0
2016-Feb-09 12:33N 29°49' W 093°20'0 0.0
2016-Feb-09 11:33N 29°49' W 093°20'0 0.0
2016-Feb-09 10:33N 29°49' W 093°20'0 0.0
2016-Feb-09 09:33N 29°49' W 093°20'7 7.2
2016-Feb-09 08:34N 29°42' W 093°20'0 0.0
2016-Feb-08 19:04N 29°42' W 093°20'612.4
2016-Feb-08 18:34N 29°49' W 093°21'1 0.8
2016-Feb-08 17:33N 29°49' W 093°20'0 0.0
2016-Feb-08 06:27N 29°49' W 093°20'3 3.1
2016-Feb-08 05:30N 29°46' W 093°21'0 0.0
2016-Feb-08 04:33N 29°46' W 093°21'15 0.7
2016-Feb-07 07:32N 29°31' W 093°22'1616.3
2016-Feb-07 06:33N 29°47' W 093°21'2 2.4
2016-Feb-07 05:33N 29°49' W 093°20'0 0.0
2016-Feb-07 04:33N 29°49' W 093°20'0 0.0
2016-Feb-07 03:33N 29°49' W 093°20'0 0.0
2016-Feb-07 02:07N 29°49' W 093°20'0 0.0
2016-Feb-07 01:33N 29°49' W 093°20'1 1.2
2016-Feb-07 00:33N 29°48' W 093°21'1 1.2
2016-Feb-06 23:33N 29°49' W 093°20'3 3.4
2016-Feb-06 22:33N 29°46' W 093°21'10 0.7
2016-Feb-06 07:16N 29°36' W 093°22'1115.3
2016-Feb-06 06:33N 29°47' W 093°21'3 2.7
2016-Feb-06 05:33N 29°49' W 093°20'0 0.1
2016-Feb-06 04:33N 29°49' W 093°20'0 0.1
2016-Feb-06 03:33N 29°49' W 093°20'0 0.0
2016-Feb-06 02:33N 29°49' W 093°20'0 0.0
2016-Feb-06 01:33N 29°49' W 093°20'0 0.0
2016-Feb-06 00:33N 29°49' W 093°20'0 0.0
2016-Feb-05 23:33N 29°49' W 093°20'0 0.0
2016-Feb-05 22:33N 29°49' W 093°20'0 0.0
2016-Feb-05 21:33N 29°49' W 093°20'0 0.0
2016-Feb-05 20:33N 29°49' W 093°20'0 0.0
2016-Feb-05 19:33N 29°49' W 093°20'0 0.0
2016-Feb-05 18:33N 29°49' W 093°20'0 0.0
2016-Feb-05 17:33N 29°49' W 093°20'0 0.0
2016-Feb-05 16:33N 29°49' W 093°20'0 0.0
2016-Feb-05 15:33N 29°49' W 093°20'0 0.0
2016-Feb-05 14:33N 29°49' W 093°20'0 0.0
2016-Feb-05 13:33N 29°49' W 093°20'0 0.0
2016-Feb-05 12:33N 29°49' W 093°20'0 0.0
2016-Feb-05 11:33N 29°49' W 093°20'0 0.0
2016-Feb-05 10:33N 29°49' W 093°20'0 0.0
2016-Feb-05 09:33N 29°49' W 093°20'0 0.0
2016-Feb-05 08:33N 29°49' W 093°20'0 0.0
2016-Feb-05 07:33N 29°49' W 093°20'0 0.0
2016-Feb-05 06:33N 29°49' W 093°20'0 0.0
2016-Feb-05 05:33N 29°49' W 093°20'0 0.0
2016-Feb-05 04:33N 29°49' W 093°20'0 0.0
2016-Feb-05 03:33N 29°49' W 093°20'0 0.0
2016-Feb-05 02:33N 29°49' W 093°20'0 0.0
2016-Feb-05 01:33N 29°49' W 093°20'0 0.0
2016-Feb-05 00:33N 29°49' W 093°20'0 0.0
2016-Feb-04 23:33N 29°49' W 093°20'0 0.0
2016-Feb-04 22:33N 29°49' W 093°20'0 0.0
2016-Feb-04 21:33N 29°49' W 093°20'0 0.0
2016-Feb-04 20:33N 29°49' W 093°20'0 0.0
2016-Feb-04 19:33N 29°49' W 093°20'0 0.0
2016-Feb-04 18:33N 29°49' W 093°20'0 0.0
2016-Feb-04 17:33N 29°49' W 093°20'0 0.0
2016-Feb-04 16:33N 29°49' W 093°20'0 0.1
2016-Feb-04 15:33N 29°49' W 093°20'1 1.4
2016-Feb-04 14:33N 29°48' W 093°21'1 1.3
2016-Feb-04 13:33N 29°49' W 093°20'0 0.0
2016-Feb-04 12:33N 29°49' W 093°20'0 0.0
2016-Feb-04 11:33N 29°49' W 093°20'0 0.0
2016-Feb-04 10:33N 29°49' W 093°20'0 0.0
2016-Feb-04 09:33N 29°49' W 093°20'0 0.0
2016-Feb-04 08:33N 29°49' W 093°20'3 2.9
2016-Feb-04 07:33N 29°46' W 093°21'0 0.0
2016-Feb-04 06:33N 29°46' W 093°21'2 0.1
2016-Feb-03 13:33N 29°44' W 093°20'5 5.1
2016-Feb-03 12:33N 29°49' W 093°20'0 0.1
2016-Feb-03 11:33N 29°49' W 093°20'0 0.0
2016-Feb-03 10:33N 29°49' W 093°20'0 0.0
2016-Feb-03 09:33N 29°49' W 093°20'0 0.0
2016-Feb-03 08:33N 29°49' W 093°20'  
Track history (hours):
 
Tides and Currents Weather Stations Pressure Air Temp Water Temp Dewpoint Dewpoint Depression Visibility Wind Speed Wind Dir Waves Ship Positions

Mr. Mag

Owner: Tandi Marine, Inc., Larose, LA. More information available from US FCC via Universal Licensing System and Coast Guard Vessel Documentation Center.

Last reported at 2016-Feb-13 07:33 UTC. Time now 2016-Feb-13 11:00 UTC.
Position N 29°05' W 093°28'.

Length 46 m; draft 2.5 m.

Type: Passenger vessel. MMSI: 367397990.

Date/timePositionNaut miles runAvg speedWind from/ knotsBaromVisibWave heightAir tempDewpointWater temp
2016-Feb-13 07:33N 29°05' W 093°28'1717.4
2016-Feb-13 06:33N 29°22' W 093°24'1917.4
2016-Feb-13 05:29N 29°40' W 093°21'6 6.6
2016-Feb-13 04:34N 29°46' W 093°21'0 0.0
2016-Feb-13 03:34N 29°46' W 093°21'0 0.0
2016-Feb-13 02:33N 29°46' W 093°21'2 2.1
2016-Feb-13 01:34N 29°48' W 093°21'1 0.9
2016-Feb-13 00:34N 29°49' W 093°20'0 0.0
2016-Feb-12 23:34N 29°49' W 093°20'0 0.1
2016-Feb-12 22:34N 29°49' W 093°20'0 0.0
2016-Feb-12 21:34N 29°49' W 093°20'8 8.2
2016-Feb-12 20:33N 29°41' W 093°21'37 3.3
2016-Feb-12 09:08N 29°04' W 093°28'1617.8
2016-Feb-12 08:15N 29°20' W 093°25'1217.4
2016-Feb-12 07:33N 29°32' W 093°22'1615.7
2016-Feb-12 06:33N 29°47' W 093°21'2 1.8
2016-Feb-12 05:33N 29°49' W 093°21'0 0.0
2016-Feb-12 04:33N 29°49' W 093°21'0 0.1
2016-Feb-12 03:33N 29°49' W 093°20'0 0.0
2016-Feb-12 02:33N 29°49' W 093°20'0 0.0
2016-Feb-12 01:33N 29°49' W 093°20'1 1.2
2016-Feb-12 00:33N 29°48' W 093°21'4414.5
2016-Feb-11 21:34N 29°05' W 093°27'7 6.8
2016-Feb-11 20:30N 28°58' W 093°29'33 2.3
2016-Feb-11 06:28N 29°30' W 093°23'1516.3
2016-Feb-11 05:33N 29°45' W 093°21'4 4.2
2016-Feb-11 04:33N 29°49' W 093°20'0 0.0
2016-Feb-11 03:33N 29°49' W 093°20'1 0.7
2016-Feb-11 02:33N 29°49' W 093°21'1 0.6
2016-Feb-11 01:32N 29°49' W 093°20'0 0.0
2016-Feb-11 00:33N 29°49' W 093°20'0 0.0
2016-Feb-10 23:33N 29°49' W 093°20'0 0.0
2016-Feb-10 22:33N 29°49' W 093°20'0 0.0
2016-Feb-10 21:33N 29°49' W 093°20'0 0.0
2016-Feb-10 20:33N 29°49' W 093°20'0 0.0
2016-Feb-10 19:33N 29°49' W 093°20'0 0.0
2016-Feb-10 18:33N 29°49' W 093°20'0 0.0
2016-Feb-10 17:33N 29°49' W 093°20'0 0.0
2016-Feb-10 16:33N 29°49' W 093°20'0 0.0
2016-Feb-10 15:33N 29°49' W 093°20'0 0.0
2016-Feb-10 14:33N 29°49' W 093°20'0 0.0
2016-Feb-10 13:33N 29°49' W 093°20'0 0.0
2016-Feb-10 12:33N 29°49' W 093°20'0 0.0
2016-Feb-10 11:33N 29°49' W 093°20'0 0.0
2016-Feb-10 10:33N 29°49' W 093°20'0 0.0
2016-Feb-10 09:33N 29°49' W 093°20'0 0.0
2016-Feb-10 08:33N 29°49' W 093°20'0 0.0
2016-Feb-10 07:33N 29°49' W 093°20'0 0.0
2016-Feb-10 06:33N 29°49' W 093°20'0 0.0
2016-Feb-10 05:33N 29°49' W 093°20'0 0.0
2016-Feb-10 04:33N 29°49' W 093°20'0 0.0
2016-Feb-10 03:33N 29°49' W 093°20'0 0.0
2016-Feb-10 02:33N 29°49' W 093°20'0 0.0
2016-Feb-10 01:33N 29°49' W 093°20'0 0.0
2016-Feb-10 00:33N 29°49' W 093°20'0 0.1
2016-Feb-09 23:30N 29°49' W 093°20'1 1.0
2016-Feb-09 22:33N 29°49' W 093°21'1 0.8
2016-Feb-09 21:33N 29°49' W 093°20'0 0.0
2016-Feb-09 20:33N 29°49' W 093°20'0 0.0
2016-Feb-09 19:33N 29°49' W 093°20'0 0.0
2016-Feb-09 18:33N 29°49' W 093°20'0 0.0
2016-Feb-09 17:33N 29°49' W 093°20'0 0.0
2016-Feb-09 16:33N 29°49' W 093°20'0 0.0
2016-Feb-09 15:33N 29°49' W 093°20'0 0.0
2016-Feb-09 14:33N 29°49' W 093°20'0 0.1
2016-Feb-09 13:33N 29°49' W 093°20'0 0.0
2016-Feb-09 12:33N 29°49' W 093°20'0 0.0
2016-Feb-09 11:33N 29°49' W 093°20'0 0.0
2016-Feb-09 10:33N 29°49' W 093°20'0 0.0
2016-Feb-09 09:33N 29°49' W 093°20'7 7.2
2016-Feb-09 08:34N 29°42' W 093°20'0 0.0
2016-Feb-08 19:04N 29°42' W 093°20'612.4
2016-Feb-08 18:34N 29°49' W 093°21'1 0.8
2016-Feb-08 17:33N 29°49' W 093°20'0 0.0
2016-Feb-08 06:27N 29°49' W 093°20'3 3.1
2016-Feb-08 05:30N 29°46' W 093°21'0 0.0
2016-Feb-08 04:33N 29°46' W 093°21'15 0.7
2016-Feb-07 07:32N 29°31' W 093°22'1616.3
2016-Feb-07 06:33N 29°47' W 093°21'2 2.4
2016-Feb-07 05:33N 29°49' W 093°20'0 0.0
2016-Feb-07 04:33N 29°49' W 093°20'0 0.0
2016-Feb-07 03:33N 29°49' W 093°20'0 0.0
2016-Feb-07 02:07N 29°49' W 093°20'0 0.0
2016-Feb-07 01:33N 29°49' W 093°20'1 1.2
2016-Feb-07 00:33N 29°48' W 093°21'1 1.2
2016-Feb-06 23:33N 29°49' W 093°20'3 3.4
2016-Feb-06 22:33N 29°46' W 093°21'10 0.7
2016-Feb-06 07:16N 29°36' W 093°22'1115.3
2016-Feb-06 06:33N 29°47' W 093°21'3 2.7
2016-Feb-06 05:33N 29°49' W 093°20'0 0.1
2016-Feb-06 04:33N 29°49' W 093°20'0 0.1
2016-Feb-06 03:33N 29°49' W 093°20'0 0.0
2016-Feb-06 02:33N 29°49' W 093°20'0 0.0
2016-Feb-06 01:33N 29°49' W 093°20'0 0.0
2016-Feb-06 00:33N 29°49' W 093°20'0 0.0
2016-Feb-05 23:33N 29°49' W 093°20'0 0.0
2016-Feb-05 22:33N 29°49' W 093°20'0 0.0
2016-Feb-05 21:33N 29°49' W 093°20'0 0.0
2016-Feb-05 20:33N 29°49' W 093°20'0 0.0
2016-Feb-05 19:33N 29°49' W 093°20'0 0.0
2016-Feb-05 18:33N 29°49' W 093°20'0 0.0
2016-Feb-05 17:33N 29°49' W 093°20'0 0.0
2016-Feb-05 16:33N 29°49' W 093°20'0 0.0
2016-Feb-05 15:33N 29°49' W 093°20'0 0.0
2016-Feb-05 14:33N 29°49' W 093°20'0 0.0
2016-Feb-05 13:33N 29°49' W 093°20'0 0.0
2016-Feb-05 12:33N 29°49' W 093°20'0 0.0
2016-Feb-05 11:33N 29°49' W 093°20'0 0.0
2016-Feb-05 10:33N 29°49' W 093°20'0 0.0
2016-Feb-05 09:33N 29°49' W 093°20'0 0.0
2016-Feb-05 08:33N 29°49' W 093°20'0 0.0
2016-Feb-05 07:33N 29°49' W 093°20'0 0.0
2016-Feb-05 06:33N 29°49' W 093°20'0 0.0
2016-Feb-05 05:33N 29°49' W 093°20'0 0.0
2016-Feb-05 04:33N 29°49' W 093°20'0 0.0
2016-Feb-05 03:33N 29°49' W 093°20'0 0.0
2016-Feb-05 02:33N 29°49' W 093°20'0 0.0
2016-Feb-05 01:33N 29°49' W 093°20'0 0.0
2016-Feb-05 00:33N 29°49' W 093°20'0 0.0
2016-Feb-04 23:33N 29°49' W 093°20'0 0.0
2016-Feb-04 22:33N 29°49' W 093°20'0 0.0
2016-Feb-04 21:33N 29°49' W 093°20'0 0.0
2016-Feb-04 20:33N 29°49' W 093°20'0 0.0
2016-Feb-04 19:33N 29°49' W 093°20'0 0.0
2016-Feb-04 18:33N 29°49' W 093°20'0 0.0
2016-Feb-04 17:33N 29°49' W 093°20'0 0.0
2016-Feb-04 16:33N 29°49' W 093°20'0 0.1
2016-Feb-04 15:33N 29°49' W 093°20'1 1.4
2016-Feb-04 14:33N 29°48' W 093°21'1 1.3
2016-Feb-04 13:33N 29°49' W 093°20'0 0.0
2016-Feb-04 12:33N 29°49' W 093°20'0 0.0
2016-Feb-04 11:33N 29°49' W 093°20'0 0.0
2016-Feb-04 10:33N 29°49' W 093°20'0 0.0
2016-Feb-04 09:33N 29°49' W 093°20'0 0.0
2016-Feb-04 08:33N 29°49' W 093°20'3 2.9
2016-Feb-04 07:33N 29°46' W 093°21'0 0.0
2016-Feb-04 06:33N 29°46' W 093°21'2 0.1
2016-Feb-03 13:33N 29°44' W 093°20'5 5.1
2016-Feb-03 12:33N 29°49' W 093°20'0 0.1
2016-Feb-03 11:33N 29°49' W 093°20'0 0.0
2016-Feb-03 10:33N 29°49' W 093°20'0 0.0
2016-Feb-03 09:33N 29°49' W 093°20'0 0.0
2016-Feb-03 08:33N 29°49' W 093°20'  

Dump ship's entire track history